createdAt,value
2019-04-07T00:00:01.215Z,1006.85
2019-04-07T00:10:01.730Z,1006.7
2019-04-07T00:15:01.168Z,1006.7
2019-04-07T00:20:01.021Z,1006.74
2019-04-07T00:30:01.907Z,1006.76
2019-04-07T00:45:01.087Z,1006.77
2019-04-07T01:00:01.824Z,1006.71
2019-04-07T01:15:01.076Z,1006.72
2019-04-07T01:25:01.110Z,1006.66
2019-04-07T01:30:01.078Z,1006.71
2019-04-07T01:40:02.293Z,1006.64
2019-04-07T01:45:01.694Z,1006.64
2019-04-07T01:50:01.096Z,1006.67
2019-04-07T02:00:03.220Z,1006.73
2019-04-07T02:05:01.136Z,1006.73
2019-04-07T02:15:01.133Z,1006.71
2019-04-07T02:30:01.144Z,1006.5
2019-04-07T02:45:01.605Z,1006.46
2019-04-07T02:50:03.201Z,1006.51
2019-04-07T02:55:02.351Z,1006.51
2019-04-07T03:00:02.228Z,1006.5
2019-04-07T03:05:02.435Z,1006.5
2019-04-07T03:15:01.188Z,1006.49
2019-04-07T03:30:02.093Z,1006.52
2019-04-07T03:35:06.072Z,1006.52
2019-04-07T03:45:01.415Z,1006.44
2019-04-07T04:00:02.627Z,1006.47
2019-04-07T04:15:03.736Z,1006.45
2019-04-07T04:20:01.208Z,1006.48
2019-04-07T04:30:01.379Z,1006.57
2019-04-07T04:35:01.717Z,1006.57
2019-04-07T04:45:04.056Z,1006.64
2019-04-07T05:00:02.472Z,1006.76
2019-04-07T05:10:01.762Z,1006.75
2019-04-07T05:15:02.041Z,1006.75
2019-04-07T05:30:02.372Z,1006.94
2019-04-07T05:40:04.860Z,1006.92
2019-04-07T05:45:01.454Z,1006.92
2019-04-07T05:50:06.180Z,1007.06
2019-04-07T05:55:02.790Z,1007.06
2019-04-07T06:00:01.963Z,1007.08
2019-04-07T06:05:01.610Z,1007.08
2019-04-07T06:10:02.276Z,1007.12
2019-04-07T06:15:02.020Z,1007.12
2019-04-07T06:20:03.613Z,1007.23
2019-04-07T06:25:06.790Z,1007.23
2019-04-07T06:30:02.297Z,1007.2
2019-04-07T06:35:02.897Z,1007.2
2019-04-07T06:40:01.538Z,1007.14
2019-04-07T06:45:02.022Z,1007.14
2019-04-07T06:50:05.874Z,1007.09
2019-04-07T06:55:01.235Z,1007.09
2019-04-07T07:00:02.557Z,1007.1
2019-04-07T07:05:01.332Z,1007.1
2019-04-07T07:10:02.042Z,1007.0
2019-04-07T07:15:04.752Z,1007.0
2019-04-07T07:20:05.675Z,1007.05
2019-04-07T07:25:01.529Z,1007.05
2019-04-07T07:30:02.448Z,1007.11
2019-04-07T07:35:01.234Z,1007.11
2019-04-07T07:40:01.871Z,1007.2
2019-04-07T07:45:02.771Z,1007.2
2019-04-07T07:50:08.891Z,1007.17
2019-04-07T07:55:03.755Z,1007.17
2019-04-07T08:00:07.260Z,1007.17
2019-04-07T08:05:03.097Z,1007.17
2019-04-07T08:10:01.736Z,1007.15
2019-04-07T08:15:02.916Z,1007.15
2019-04-07T08:20:01.290Z,1007.29
2019-04-07T08:25:06.391Z,1007.29
2019-04-07T08:30:03.714Z,1007.37
2019-04-07T08:35:07.770Z,1007.37
2019-04-07T08:40:07.374Z,1007.45
2019-04-07T08:45:03.544Z,1007.45
2019-04-07T08:50:02.844Z,1007.38
2019-04-07T08:55:02.817Z,1007.38
2019-04-07T09:00:01.495Z,1007.34
2019-04-07T09:05:02.601Z,1007.34
2019-04-07T09:10:01.243Z,1007.38
2019-04-07T09:15:13.128Z,1007.38
2019-04-07T09:20:10.646Z,1007.45
2019-04-07T09:25:09.580Z,1007.45
2019-04-07T09:30:02.628Z,1007.47
2019-04-07T09:35:07.533Z,1007.47
2019-04-07T09:40:04.741Z,1007.5
2019-04-07T09:45:06.965Z,1007.5
2019-04-07T09:50:02.839Z,1007.57
2019-04-07T09:55:01.566Z,1007.57
2019-04-07T10:00:02.283Z,1007.57
2019-04-07T10:05:01.310Z,1007.57
2019-04-07T10:10:14.221Z,1007.54
2019-04-07T10:15:02.444Z,1007.54
2019-04-07T10:20:02.455Z,1007.51
2019-04-07T10:25:02.327Z,1007.51
2019-04-07T10:30:01.353Z,1007.44
2019-04-07T10:35:02.703Z,1007.44
2019-04-07T10:40:03.220Z,1007.43
2019-04-07T10:45:01.410Z,1007.43
2019-04-07T10:50:08.566Z,1007.35
2019-04-07T10:55:01.328Z,1007.35
2019-04-07T11:00:01.745Z,1007.27
2019-04-07T11:05:02.901Z,1007.27
2019-04-07T11:10:01.434Z,1007.25
2019-04-07T11:15:01.465Z,1007.25
2019-04-07T11:20:01.753Z,1007.15
2019-04-07T11:25:02.552Z,1007.15
2019-04-07T11:30:09.102Z,1007.13
2019-04-07T11:40:02.356Z,1007.07
2019-04-07T11:45:01.429Z,1007.07
2019-04-07T11:50:02.014Z,1007.07
2019-04-07T11:55:02.430Z,1007.07
2019-04-07T12:00:02.635Z,1007.06
2019-04-07T12:05:01.352Z,1007.06
2019-04-07T12:10:01.218Z,1007.08
2019-04-07T12:15:02.533Z,1007.08
2019-04-07T12:20:01.490Z,1007.04
2019-04-07T12:25:05.398Z,1007.04
2019-04-07T12:30:02.608Z,1007.09
2019-04-07T12:40:01.600Z,1007.16
2019-04-07T12:45:02.156Z,1007.16
2019-04-07T12:50:02.185Z,1007.11
2019-04-07T12:55:01.942Z,1007.11
2019-04-07T13:00:02.039Z,1007.05
2019-04-07T13:05:07.535Z,1007.05
2019-04-07T13:10:05.402Z,1006.98
2019-04-07T13:15:03.414Z,1006.98
2019-04-07T13:30:01.536Z,1006.83
2019-04-07T13:45:04.838Z,1006.9
2019-04-07T13:50:02.793Z,1006.84
2019-04-07T13:55:07.477Z,1006.84
2019-04-07T14:00:02.091Z,1006.94
2019-04-07T14:05:09.877Z,1006.94
2019-04-07T14:10:05.360Z,1006.9
2019-04-07T14:15:01.451Z,1006.9
2019-04-07T14:25:02.612Z,1006.87
2019-04-07T14:30:02.979Z,1006.9
2019-04-07T14:35:02.418Z,1006.9
2019-04-07T14:45:01.739Z,1006.81
2019-04-07T14:50:02.177Z,1006.88
2019-04-07T15:00:03.556Z,1006.87
2019-04-07T15:10:01.499Z,1006.9
2019-04-07T15:15:11.808Z,1006.9
2019-04-07T15:30:02.754Z,1006.89
2019-04-07T15:45:02.772Z,1006.79
2019-04-07T16:00:05.700Z,1006.8
2019-04-07T16:15:02.452Z,1006.78
2019-04-07T16:20:03.547Z,1006.86
2019-04-07T16:25:02.159Z,1006.86
2019-04-07T16:30:01.539Z,1006.93
2019-04-07T16:35:02.124Z,1006.93
2019-04-07T16:40:11.819Z,1006.9
2019-04-07T16:45:02.422Z,1006.9
2019-04-07T16:50:01.543Z,1006.91
2019-04-07T16:55:02.612Z,1006.91
2019-04-07T17:00:02.005Z,1006.8
2019-04-07T17:05:02.036Z,1006.8
2019-04-07T17:10:05.046Z,1006.86
2019-04-07T17:15:07.613Z,1006.86
2019-04-07T17:20:02.439Z,1006.93
2019-04-07T17:25:11.334Z,1006.93
2019-04-07T17:30:03.172Z,1007.08
2019-04-07T17:35:02.543Z,1007.08
2019-04-07T17:40:01.852Z,1007.15
2019-04-07T17:45:01.869Z,1007.15
2019-04-07T17:50:02.646Z,1007.2
2019-04-07T17:55:04.157Z,1007.2
2019-04-07T18:00:02.138Z,1007.29
2019-04-07T18:05:01.678Z,1007.29
2019-04-07T18:10:01.492Z,1007.34
2019-04-07T18:15:11.549Z,1007.34
2019-04-07T18:20:09.422Z,1007.41
2019-04-07T18:25:06.939Z,1007.41
2019-04-07T18:30:03.546Z,1007.57
2019-04-07T18:35:02.709Z,1007.57
2019-04-07T18:40:02.774Z,1007.58
2019-04-07T18:45:02.152Z,1007.58
2019-04-07T18:50:10.090Z,1007.73
2019-04-07T18:55:09.831Z,1007.73
2019-04-07T19:00:06.214Z,1007.97
2019-04-07T19:05:02.313Z,1007.97
2019-04-07T19:10:23.965Z,1008.03
2019-04-07T19:15:11.634Z,1008.03
2019-04-07T19:20:08.822Z,1008.26
2019-04-07T19:26:01.366Z,1008.26
2019-04-07T19:31:01.368Z,1008.33
2019-04-07T19:36:01.471Z,1008.33
2019-04-07T19:41:02.651Z,1008.35
2019-04-07T19:51:01.475Z,1008.34
2019-04-07T19:56:02.651Z,1008.34
2019-04-07T20:11:01.603Z,1008.2
2019-04-07T20:26:01.865Z,1008.33
2019-04-07T20:31:05.460Z,1008.43
2019-04-07T20:41:01.438Z,1008.51
2019-04-07T20:56:01.590Z,1008.52
2019-04-07T21:01:08.885Z,1008.58
2019-04-07T21:06:02.263Z,1008.58
2019-04-07T21:11:04.585Z,1008.6
2019-04-07T21:21:01.645Z,1008.66
2019-04-07T21:31:01.781Z,1008.82
2019-04-07T21:41:02.151Z,1008.77
2019-04-07T21:46:02.448Z,1008.77
2019-04-07T21:56:01.902Z,1008.83
2019-04-07T22:01:07.085Z,1008.86
2019-04-07T22:11:01.726Z,1008.97
2019-04-07T22:26:02.273Z,1009.01
2019-04-07T22:41:01.495Z,1009.01
2019-04-07T22:56:08.550Z,1008.95
2019-04-07T23:11:02.394Z,1008.96
2019-04-07T23:26:02.140Z,1008.98
2019-04-07T23:41:03.480Z,1009.02
2019-04-07T23:56:01.840Z,1008.92
